createdAt,value
2018-06-21T00:00:51.849Z,62.00
2018-06-21T00:03:56.006Z,62.20
2018-06-21T00:07:00.210Z,62.20
2018-06-21T00:10:04.577Z,62.20
2018-06-21T00:13:09.093Z,62.20
2018-06-21T00:16:13.360Z,62.20
2018-06-21T00:19:17.876Z,62.30
2018-06-21T00:22:22.230Z,62.30
2018-06-21T00:25:26.705Z,62.50
2018-06-21T00:28:31.131Z,62.40
2018-06-21T00:31:35.593Z,62.50
2018-06-21T00:34:40.067Z,62.60
2018-06-21T00:37:44.216Z,62.60
2018-06-21T00:40:48.443Z,62.70
2018-06-21T00:43:52.731Z,62.70
2018-06-21T00:46:56.953Z,63.10
2018-06-21T00:50:01.149Z,63.20
2018-06-21T00:53:06.218Z,63.20
2018-06-21T00:56:18.165Z,63.10
2018-06-21T00:59:22.494Z,63.40
2018-06-21T01:02:26.844Z,63.40
2018-06-21T01:05:31.155Z,63.70
2018-06-21T01:08:35.803Z,63.80
2018-06-21T01:11:40.150Z,63.70
2018-06-21T01:14:44.434Z,63.80
2018-06-21T01:17:48.752Z,64.00
2018-06-21T01:20:52.886Z,64.00
2018-06-21T01:23:57.011Z,64.10
2018-06-21T01:27:01.306Z,64.30
2018-06-21T01:30:05.643Z,64.60
2018-06-21T01:33:09.960Z,64.70
2018-06-21T01:36:14.435Z,64.90
2018-06-21T01:39:18.835Z,64.90
2018-06-21T01:42:22.959Z,64.90
2018-06-21T01:45:27.080Z,64.90
2018-06-21T01:48:31.434Z,64.90
2018-06-21T01:51:35.813Z,65.00
2018-06-21T01:54:40.166Z,65.60
2018-06-21T01:57:44.396Z,65.60
2018-06-21T02:00:48.561Z,65.90
2018-06-21T02:03:52.464Z,66.10
2018-06-21T02:06:56.578Z,66.20
2018-06-21T02:10:00.858Z,66.00
2018-06-21T02:13:04.994Z,66.00
2018-06-21T02:16:09.307Z,66.00
2018-06-21T02:19:13.473Z,65.90
2018-06-21T02:22:17.802Z,66.80
2018-06-21T02:25:22.154Z,66.00
2018-06-21T02:28:26.376Z,65.90
2018-06-21T02:31:30.530Z,65.80
2018-06-21T02:34:34.838Z,65.90
2018-06-21T02:37:39.145Z,66.10
2018-06-21T02:40:43.633Z,66.10
2018-06-21T02:43:47.988Z,66.40
2018-06-21T02:46:52.702Z,66.50
2018-06-21T02:49:56.953Z,66.50
2018-06-21T02:56:04.915Z,66.50
2018-06-21T02:59:09.241Z,67.00
2018-06-21T03:02:13.704Z,66.70
2018-06-21T03:05:17.875Z,66.90
2018-06-21T03:08:22.327Z,66.90
2018-06-21T03:11:26.630Z,66.90
2018-06-21T03:14:30.970Z,66.80
2018-06-21T03:17:35.293Z,66.90
2018-06-21T03:20:39.598Z,67.00
2018-06-21T03:23:43.720Z,66.80
2018-06-21T03:26:47.853Z,66.90
2018-06-21T03:29:52.155Z,67.10
2018-06-21T03:32:56.373Z,67.00
2018-06-21T03:36:00.812Z,67.00
2018-06-21T03:39:06.091Z,66.80
2018-06-21T03:42:10.471Z,67.00
2018-06-21T03:45:14.852Z,66.90
2018-06-21T03:48:18.881Z,67.10
2018-06-21T03:51:23.232Z,67.20
2018-06-21T03:54:27.668Z,66.80
2018-06-21T03:57:32.125Z,66.80
2018-06-21T04:00:36.445Z,66.60
2018-06-21T04:03:40.589Z,66.40
2018-06-21T04:06:44.973Z,66.10
2018-06-21T04:09:49.405Z,66.10
2018-06-21T04:12:54.669Z,65.90
2018-06-21T04:15:59.299Z,65.80
2018-06-21T04:19:03.690Z,65.60
2018-06-21T04:22:08.108Z,65.50
2018-06-21T04:25:12.463Z,65.20
2018-06-21T04:28:16.782Z,64.70
2018-06-21T04:31:20.998Z,64.80
2018-06-21T04:34:25.408Z,64.60
2018-06-21T04:37:29.760Z,64.20
2018-06-21T04:40:33.902Z,64.10
2018-06-21T04:43:38.234Z,63.70
2018-06-21T04:46:42.533Z,63.40
2018-06-21T04:49:46.940Z,63.00
2018-06-21T04:52:51.210Z,62.80
2018-06-21T04:55:55.525Z,62.20
2018-06-21T04:58:59.930Z,61.70
2018-06-21T05:02:05.867Z,61.30
2018-06-21T05:05:10.307Z,61.10
2018-06-21T05:08:14.622Z,61.70
2018-06-21T05:11:18.935Z,60.10
2018-06-21T05:14:23.255Z,59.80
2018-06-21T05:17:27.468Z,59.60
2018-06-21T05:20:31.766Z,59.40
2018-06-21T05:23:36.217Z,59.10
2018-06-21T05:26:40.551Z,59.20
2018-06-21T05:29:44.921Z,58.90
2018-06-21T05:32:49.262Z,58.60
2018-06-21T05:35:53.547Z,57.70
2018-06-21T05:38:58.057Z,57.50
2018-06-21T05:42:02.184Z,57.80
2018-06-21T05:45:06.673Z,57.80
2018-06-21T05:48:10.867Z,57.90
2018-06-21T05:51:15.127Z,58.00
2018-06-21T05:54:19.186Z,58.10
2018-06-21T05:57:23.346Z,57.80
2018-06-21T06:00:27.929Z,57.60
2018-06-21T06:03:32.338Z,57.40
2018-06-21T06:06:39.718Z,56.90
2018-06-21T06:09:49.983Z,56.40
2018-06-21T06:12:54.326Z,55.70
2018-06-21T06:15:58.546Z,54.70
2018-06-21T06:19:03.110Z,53.20
2018-06-21T06:22:07.337Z,51.80
2018-06-21T06:25:11.743Z,50.30
2018-06-21T06:28:17.219Z,48.60
2018-06-21T06:31:21.601Z,47.00
2018-06-21T06:34:26.016Z,46.20
2018-06-21T06:37:30.345Z,44.90
2018-06-21T06:40:34.660Z,43.50
2018-06-21T06:43:39.159Z,42.50
2018-06-21T06:46:43.484Z,40.30
2018-06-21T06:49:47.764Z,39.40
2018-06-21T06:52:51.969Z,38.20
2018-06-21T06:55:56.209Z,36.70
2018-06-21T06:59:00.619Z,35.60
2018-06-21T07:02:05.472Z,34.00
2018-06-21T07:05:09.879Z,32.80
2018-06-21T07:08:14.685Z,31.40
2018-06-21T07:11:18.951Z,30.00
2018-06-21T07:14:23.255Z,29.00
2018-06-21T07:17:27.511Z,28.50
2018-06-21T07:20:32.033Z,28.00
2018-06-21T07:23:36.535Z,27.30
2018-06-21T07:26:40.732Z,26.80
2018-06-21T07:29:45.167Z,26.30
2018-06-21T07:32:49.528Z,26.60
2018-06-21T07:35:54.024Z,27.10
2018-06-21T07:38:58.184Z,28.00
2018-06-21T07:42:02.630Z,29.10
2018-06-21T07:45:06.759Z,29.40
2018-06-21T07:48:11.186Z,30.00
2018-06-21T07:51:15.710Z,30.80
2018-06-21T07:54:20.184Z,31.70
2018-06-21T07:57:24.677Z,32.80
2018-06-21T08:00:29.315Z,33.60
2018-06-21T08:03:33.817Z,34.20
2018-06-21T08:06:38.535Z,35.20
2018-06-21T08:09:42.657Z,36.20
2018-06-21T08:12:46.816Z,37.00
2018-06-21T08:15:51.281Z,37.80
2018-06-21T08:18:55.584Z,38.10
2018-06-21T08:21:59.960Z,39.20
2018-06-21T08:25:04.654Z,39.70
2018-06-21T08:28:08.802Z,40.20
2018-06-21T08:31:13.160Z,40.80
2018-06-21T08:34:17.459Z,42.10
2018-06-21T08:37:21.770Z,42.50
2018-06-21T08:40:26.120Z,42.60
2018-06-21T08:43:30.529Z,42.30
2018-06-21T08:46:34.908Z,42.70
2018-06-21T08:49:38.962Z,42.70
2018-06-21T08:52:43.207Z,42.10
2018-06-21T08:55:47.566Z,42.00
2018-06-21T08:58:52.065Z,41.70
2018-06-21T09:01:56.364Z,41.60
2018-06-21T09:05:00.712Z,42.10
2018-06-21T09:08:04.999Z,41.50
2018-06-21T09:11:09.376Z,41.50
2018-06-21T09:14:13.793Z,41.50
2018-06-21T09:17:17.970Z,41.30
2018-06-21T09:20:22.439Z,41.50
2018-06-21T09:23:26.689Z,41.30
2018-06-21T09:26:30.958Z,41.00
2018-06-21T09:29:35.573Z,40.70
2018-06-21T09:32:39.934Z,40.80
2018-06-21T09:35:44.088Z,40.30
2018-06-21T09:38:53.575Z,40.10
2018-06-21T09:42:03.021Z,40.80
2018-06-21T09:45:07.334Z,41.30
2018-06-21T09:48:16.758Z,41.30
2018-06-21T09:51:21.612Z,41.20
2018-06-21T09:54:25.985Z,41.10
2018-06-21T09:57:30.334Z,41.10
2018-06-21T10:00:39.870Z,40.50
2018-06-21T10:03:44.197Z,40.00
2018-06-21T10:06:48.474Z,39.80
2018-06-21T10:09:52.833Z,40.00
2018-06-21T10:12:57.294Z,40.70
2018-06-21T10:16:01.848Z,39.20
2018-06-21T10:19:06.026Z,39.40
2018-06-21T10:22:10.259Z,39.50
2018-06-21T10:25:14.783Z,39.10
2018-06-21T10:28:19.231Z,39.20
2018-06-21T10:31:23.650Z,39.50
2018-06-21T10:34:27.988Z,39.70
2018-06-21T10:37:33.225Z,38.60
2018-06-21T10:40:39.203Z,37.90
2018-06-21T10:43:43.498Z,38.20
2018-06-21T10:46:47.838Z,37.60
2018-06-21T10:49:51.931Z,37.70
2018-06-21T10:52:57.318Z,38.40
2018-06-21T10:56:01.633Z,38.80
2018-06-21T10:59:05.998Z,39.20
2018-06-21T11:02:09.872Z,40.00
2018-06-21T11:05:13.823Z,40.30
2018-06-21T11:08:18.127Z,40.90
2018-06-21T11:11:22.130Z,40.40
2018-06-21T11:14:26.566Z,40.40
2018-06-21T11:17:30.758Z,40.30
2018-06-21T11:20:34.865Z,39.40
2018-06-21T11:23:39.263Z,39.60
2018-06-21T11:26:43.612Z,38.30
2018-06-21T11:29:48.114Z,38.70
2018-06-21T11:32:52.305Z,39.40
2018-06-21T11:35:56.716Z,38.80
2018-06-21T11:39:01.973Z,37.80
2018-06-21T11:42:06.728Z,37.60
2018-06-21T13:05:49.791Z,35.70
2018-06-21T13:09:05.157Z,35.70
2018-06-21T13:12:34.067Z,36.10
2018-06-21T13:15:38.503Z,36.50
2018-06-21T13:18:42.706Z,36.70
2018-06-21T13:21:47.071Z,36.90
2018-06-21T13:24:51.768Z,37.50
2018-06-21T13:27:56.111Z,37.30
2018-06-21T13:31:00.605Z,37.10
2018-06-21T13:34:04.958Z,37.80
2018-06-21T13:37:09.702Z,37.70
2018-06-21T13:40:13.945Z,38.50
2018-06-21T13:43:18.150Z,38.30
2018-06-21T13:46:22.536Z,37.90
2018-06-21T13:49:27.784Z,37.70
2018-06-21T13:52:32.300Z,37.90
2018-06-21T13:55:36.564Z,37.30
2018-06-21T13:58:41.184Z,37.40
2018-06-21T14:01:45.617Z,37.30
2018-06-21T14:04:49.898Z,37.00
2018-06-21T14:07:54.486Z,37.50
2018-06-21T14:10:58.750Z,37.10
2018-06-21T14:14:04.448Z,37.20
2018-06-21T14:17:08.890Z,37.40
2018-06-21T14:20:13.249Z,37.00
2018-06-21T14:23:17.573Z,38.10
2018-06-21T14:26:21.980Z,38.60
2018-06-21T14:29:26.348Z,38.50
2018-06-21T14:32:30.771Z,37.70
2018-06-21T14:35:35.107Z,37.80
2018-06-21T14:38:39.435Z,38.10
2018-06-21T14:41:44.118Z,38.00
2018-06-21T14:44:48.654Z,38.00
2018-06-21T14:47:52.937Z,38.00
2018-06-21T14:50:57.475Z,37.60
2018-06-21T14:54:01.756Z,37.40
2018-06-21T14:57:05.953Z,37.10
2018-06-21T15:00:10.401Z,37.30
2018-06-21T15:03:14.527Z,37.70
2018-06-21T15:06:18.709Z,37.70
2018-06-21T15:09:23.088Z,37.50
2018-06-21T15:15:31.398Z,37.50
2018-06-21T15:18:35.636Z,37.70
2018-06-21T15:21:39.932Z,37.40
2018-06-21T15:24:44.419Z,37.70
2018-06-21T15:27:48.960Z,38.00
2018-06-21T15:30:53.530Z,38.40
2018-06-21T15:33:57.811Z,38.70
2018-06-21T15:37:02.255Z,38.20
2018-06-21T15:40:07.352Z,38.20
2018-06-21T15:43:11.779Z,38.20
2018-06-21T15:46:16.105Z,38.40
2018-06-21T15:49:20.288Z,38.60
2018-06-21T15:52:24.645Z,39.00
2018-06-21T15:58:34.106Z,39.40
2018-06-21T16:04:42.274Z,40.00
2018-06-21T16:07:46.585Z,40.70
2018-06-21T16:10:50.815Z,40.60
2018-06-21T16:13:55.190Z,41.20
2018-06-21T16:16:59.366Z,41.00
2018-06-21T16:20:03.872Z,41.10
2018-06-21T16:23:08.487Z,41.30
2018-06-21T16:26:12.603Z,41.30
2018-06-21T16:29:16.915Z,41.20
2018-06-21T16:35:24.858Z,41.20
2018-06-21T16:38:29.239Z,41.50
2018-06-21T16:41:33.579Z,41.40
2018-06-21T16:44:37.764Z,41.40
2018-06-21T16:47:41.942Z,43.20
2018-06-21T16:50:46.312Z,43.70
2018-06-21T16:53:50.756Z,44.20
2018-06-21T16:56:55.076Z,42.50
2018-06-21T16:59:59.317Z,39.70
2018-06-21T17:03:03.733Z,39.60
2018-06-21T17:06:07.972Z,38.90
2018-06-21T17:09:12.309Z,39.40
2018-06-21T17:12:16.794Z,39.70
2018-06-21T17:15:20.960Z,40.30
2018-06-21T17:18:25.105Z,41.70
2018-06-21T17:21:29.307Z,42.40
2018-06-21T17:24:33.679Z,43.50
2018-06-21T17:27:38.109Z,44.40
2018-06-21T17:30:42.825Z,45.00
2018-06-21T17:33:47.220Z,46.20
2018-06-21T17:36:51.571Z,47.20
2018-06-21T17:39:56.040Z,47.70
2018-06-21T17:43:00.602Z,53.30
2018-06-21T17:46:05.081Z,58.20
2018-06-21T17:49:09.463Z,59.70
2018-06-21T17:52:13.850Z,63.20
2018-06-21T17:55:18.095Z,66.60
2018-06-21T17:58:22.571Z,65.60
2018-06-21T18:01:26.986Z,69.40
2018-06-21T18:04:31.511Z,66.80
2018-06-21T18:07:35.941Z,67.50
2018-06-21T18:10:40.154Z,66.30
2018-06-21T18:13:44.712Z,68.30
2018-06-21T18:16:49.015Z,66.90
2018-06-21T18:19:53.403Z,68.20
2018-06-21T18:22:58.447Z,68.10
2018-06-21T18:26:02.914Z,66.40
2018-06-21T18:29:08.759Z,66.10
2018-06-21T18:32:13.241Z,66.20
2018-06-21T18:35:17.669Z,67.40
2018-06-21T18:38:22.086Z,66.80
2018-06-21T18:41:26.303Z,68.40
2018-06-21T18:44:30.681Z,68.30
2018-06-21T18:47:34.937Z,67.10
2018-06-21T18:50:39.334Z,67.30
2018-06-21T18:53:43.813Z,67.20
2018-06-21T18:56:48.011Z,67.10
2018-06-21T18:59:52.345Z,66.60
2018-06-21T19:02:56.532Z,65.80
2018-06-21T19:06:00.765Z,66.30
2018-06-21T19:09:12.047Z,66.50
2018-06-21T19:12:16.516Z,66.50
2018-06-21T19:15:20.863Z,66.70
2018-06-21T19:18:25.199Z,68.80
2018-06-21T19:21:30.051Z,69.30
2018-06-21T19:24:34.264Z,70.40
2018-06-21T19:27:38.559Z,71.20
2018-06-21T19:30:42.853Z,70.80
2018-06-21T19:33:47.112Z,71.70
2018-06-21T19:36:51.606Z,71.60
2018-06-21T19:39:55.930Z,71.50
2018-06-21T19:43:01.346Z,71.80
2018-06-21T19:46:05.796Z,72.60
2018-06-21T19:49:10.332Z,72.90
2018-06-21T19:52:14.684Z,72.90
2018-06-21T19:55:19.038Z,73.40
2018-06-21T19:58:23.665Z,73.80
2018-06-21T20:01:28.150Z,74.60
2018-06-21T20:04:34.324Z,74.00
2018-06-21T20:07:38.960Z,73.30
2018-06-21T20:10:43.588Z,73.60
2018-06-21T20:13:50.090Z,72.80
2018-06-21T20:16:54.795Z,72.40
2018-06-21T20:20:04.427Z,73.50
2018-06-21T20:23:08.556Z,73.60
2018-06-21T20:26:13.552Z,73.20
2018-06-21T20:29:20.903Z,72.70
2018-06-21T20:32:25.549Z,72.70
2018-06-21T20:35:30.812Z,72.80
2018-06-21T20:38:35.462Z,73.00
2018-06-21T20:41:40.009Z,73.70
2018-06-21T20:44:44.730Z,74.20
2018-06-21T20:47:49.109Z,74.60
2018-06-21T20:50:53.151Z,73.60
2018-06-21T20:53:57.374Z,74.30
2018-06-21T20:57:01.460Z,75.30
2018-06-21T21:00:06.260Z,75.90
2018-06-21T21:03:10.914Z,75.90
2018-06-21T21:06:14.987Z,75.70
2018-06-21T21:09:19.056Z,75.60
2018-06-21T21:12:23.473Z,74.60
2018-06-21T21:15:27.981Z,74.90
2018-06-21T21:18:32.346Z,75.40
2018-06-21T21:21:36.895Z,75.20
2018-06-21T21:24:52.735Z,75.80
2018-06-21T21:27:57.094Z,74.90
2018-06-21T21:31:01.444Z,75.50
2018-06-21T21:34:06.261Z,76.10
2018-06-21T21:37:10.178Z,76.50
2018-06-21T21:40:14.633Z,76.80
2018-06-21T21:43:18.915Z,76.70
2018-06-21T21:46:23.757Z,76.80
2018-06-21T21:49:28.153Z,77.30
2018-06-21T21:52:32.618Z,76.90
2018-06-21T21:55:36.890Z,76.40
2018-06-21T21:58:41.405Z,76.00
2018-06-21T22:01:45.719Z,76.10
2018-06-21T22:04:49.660Z,76.50
2018-06-21T22:07:54.105Z,76.00
2018-06-21T22:10:58.895Z,75.00
2018-06-21T22:14:05.586Z,74.00
2018-06-21T22:20:13.876Z,73.50
2018-06-21T22:23:18.363Z,73.70
2018-06-21T22:26:22.884Z,72.80
2018-06-21T22:29:27.044Z,73.80
2018-06-21T22:32:31.417Z,75.00
2018-06-21T22:35:35.863Z,75.80
2018-06-21T22:38:40.238Z,75.60
2018-06-21T22:41:44.941Z,75.00
2018-06-21T22:44:49.103Z,76.10
2018-06-21T22:47:53.358Z,74.70
2018-06-21T22:50:57.649Z,75.50
2018-06-21T22:54:02.242Z,75.50
2018-06-21T22:57:06.590Z,75.80
2018-06-21T23:00:10.915Z,74.80
2018-06-21T23:03:15.359Z,76.30
2018-06-21T23:09:23.467Z,76.70
2018-06-21T23:12:27.973Z,77.40
2018-06-21T23:15:32.335Z,77.60
2018-06-21T23:18:47.420Z,78.60
2018-06-21T23:21:51.568Z,78.70
2018-06-21T23:24:55.970Z,79.30
2018-06-21T23:28:00.277Z,78.70
2018-06-21T23:31:04.790Z,78.00
2018-06-21T23:34:09.004Z,78.10
2018-06-21T23:37:13.421Z,77.30
2018-06-21T23:40:17.764Z,76.80
2018-06-21T23:43:22.184Z,77.60
2018-06-21T23:46:26.631Z,78.20
2018-06-21T23:49:30.921Z,77.80
2018-06-21T23:52:34.814Z,77.40
2018-06-21T23:55:38.784Z,77.00
2018-06-21T23:58:42.736Z,77.30
